Time;durP1;ratioP1;P1;durP2;ratioP2;P2;SDS_P1;SDS_P2;PMS_P1;PMS_P2;Temp;Humidity;BMP_temperature;BMP_pressure;BME280_temperature;BME280_humidity;BME280_pressure;Samples;Min_cycle;Max_cycle;Signal;HPM_P1;HPM_P2
2022/04/09 00:02:08;;;;;;;4.35;3.33;;;1.40;99.90;;;;;;5019067;28;20040;-86
2022/04/09 00:04:34;;;;;;;4.50;3.30;;;1.40;99.90;;;;;;5001757;28;20465;-86
2022/04/09 00:06:59;;;;;;;4.28;3.40;;;1.40;99.90;;;;;;5019129;28;20029;-85
2022/04/09 00:09:25;;;;;;;5.43;3.45;;;1.40;99.90;;;;;;5001930;28;20045;-86
2022/04/09 00:11:51;;;;;;;6.90;3.97;;;1.40;99.90;;;;;;5019003;28;20104;-86
2022/04/09 00:14:17;;;;;;;5.55;3.95;;;1.40;99.90;;;;;;5019645;28;20060;-86
2022/04/09 00:16:43;;;;;;;5.85;4.45;;;1.30;99.90;;;;;;5000139;28;20072;-86
2022/04/09 00:19:09;;;;;;;6.63;3.88;;;1.30;99.90;;;;;;4999961;28;20025;-86
2022/04/09 00:21:36;;;;;;;9.18;5.68;;;1.30;99.90;;;;;;5017433;28;20105;-86
2022/04/09 00:24:01;;;;;;;6.95;5.05;;;1.30;99.90;;;;;;5016740;28;20080;-85
2022/04/09 00:26:27;;;;;;;6.30;4.38;;;1.30;99.90;;;;;;4999166;28;20026;-86
2022/04/09 00:28:53;;;;;;;8.23;4.97;;;1.30;99.90;;;;;;5017075;28;20037;-86
2022/04/09 00:31:18;;;;;;;8.82;5.25;;;1.30;99.90;;;;;;5016668;28;20389;-87
2022/04/09 00:33:44;;;;;;;8.35;4.95;;;1.30;99.90;;;;;;4999337;28;20022;-86
2022/04/09 00:36:10;;;;;;;8.23;5.18;;;1.20;99.90;;;;;;5017269;28;20026;-86
2022/04/09 00:38:36;;;;;;;9.65;5.13;;;1.20;99.90;;;;;;4999503;28;20026;-86
2022/04/09 00:41:01;;;;;;;9.45;6.03;;;1.20;99.90;;;;;;5015777;28;20069;-86
2022/04/09 00:43:27;;;;;;;8.43;6.70;;;1.20;99.90;;;;;;5000738;28;20473;-86
2022/04/09 00:45:53;;;;;;;9.00;5.55;;;1.20;99.90;;;;;;5001126;28;20033;-85
2022/04/09 00:48:22;;;;;;;9.63;6.72;;;1.20;99.90;;;;;;5000301;28;20029;-85
2022/04/09 00:50:48;;;;;;;8.68;6.50;;;1.20;99.90;;;;;;4998999;28;20026;-86
2022/04/09 00:53:20;;;;;;;16.23;7.47;;;1.20;99.90;;;;;;5016314;28;20434;-86
2022/04/09 00:58:34;;;;;;;10.57;6.95;;;1.20;99.90;;;;;;5016059;28;20028;-87
2022/04/09 01:01:00;;;;;;;11.00;7.03;;;1.20;99.90;;;;;;4998405;28;20583;-86
2022/04/09 01:03:28;;;;;;;9.10;6.28;;;1.20;99.90;;;;;;5015165;28;20022;-86
2022/04/09 01:05:54;;;;;;;8.48;6.28;;;1.20;99.90;;;;;;5014756;28;20408;-87
2022/04/09 01:08:20;;;;;;;9.38;6.25;;;1.20;99.90;;;;;;4998935;28;20069;-88
2022/04/09 01:10:51;;;;;;;10.68;7.20;;;1.20;99.90;;;;;;5014999;28;20046;-85
2022/04/09 01:13:21;;;;;;;12.38;7.75;;;1.20;99.90;;;;;;4997548;28;20110;-86
2022/04/09 01:15:46;;;;;;;12.73;8.65;;;1.20;99.90;;;;;;5014863;28;20030;-87
2022/04/09 01:18:15;;;;;;;15.05;9.23;;;1.20;99.90;;;;;;5015235;28;20029;-87
2022/04/09 01:20:40;;;;;;;12.95;8.85;;;1.20;99.90;;;;;;4997194;28;20061;-87
2022/04/09 01:23:06;;;;;;;14.60;9.07;;;1.20;99.90;;;;;;5023376;28;20437;-86
2022/04/09 01:25:34;;;;;;;11.77;8.00;;;1.20;99.90;;;;;;5019110;28;20038;-86
2022/04/09 01:28:01;;;;;;;15.30;10.68;;;1.20;99.90;;;;;;4985444;28;20030;-86
2022/04/09 01:30:26;;;;;;;14.02;9.45;;;1.20;99.90;;;;;;5001623;28;20034;-87
2022/04/09 01:32:52;;;;;;;16.55;10.77;;;1.10;99.90;;;;;;5018936;28;20018;-86
2022/04/09 01:35:18;;;;;;;25.15;12.95;;;1.10;99.90;;;;;;5001238;28;20126;-88
2022/04/09 01:37:44;;;;;;;25.88;14.02;;;1.20;99.90;;;;;;5018419;28;20057;-86
2022/04/09 01:40:10;;;;;;;28.65;16.85;;;1.20;99.90;;;;;;5000657;28;20026;-85
2022/04/09 01:42:36;;;;;;;31.25;18.00;;;1.20;99.90;;;;;;5002563;28;20026;-86
2022/04/09 01:45:04;;;;;;;30.85;17.38;;;1.20;99.90;;;;;;5019981;28;20113;-86
2022/04/09 01:47:30;;;;;;;36.63;17.63;;;1.20;99.90;;;;;;5002915;28;20030;-86
2022/04/09 01:49:56;;;;;;;35.20;16.45;;;1.20;99.90;;;;;;5003188;28;20094;-86
2022/04/09 01:52:23;;;;;;;32.03;18.40;;;1.20;99.90;;;;;;5019925;28;20057;-85
2022/04/09 01:54:48;;;;;;;37.25;21.55;;;1.20;99.90;;;;;;5002289;28;20044;-86
2022/04/09 01:57:15;;;;;;;40.53;20.95;;;1.20;99.90;;;;;;5021160;28;20475;-85
2022/04/09 01:59:44;;;;;;;42.00;22.00;;;1.20;99.90;;;;;;5019789;28;20038;-87
2022/04/09 02:02:09;;;;;;;36.55;18.92;;;1.20;99.90;;;;;;4980036;28;20042;-87
2022/04/09 02:04:35;;;;;;;41.33;22.77;;;1.20;99.90;;;;;;5002380;28;20023;-88
2022/04/09 02:07:01;;;;;;;43.00;23.83;;;1.20;99.90;;;;;;5019911;28;20065;-86
2022/04/09 02:09:26;;;;;;;46.85;24.40;;;1.20;99.90;;;;;;5002579;28;20053;-86
2022/04/09 02:11:52;;;;;;;41.33;22.98;;;1.20;99.90;;;;;;5002383;28;20032;-85
2022/04/09 02:14:18;;;;;;;43.30;22.50;;;1.30;99.90;;;;;;5001955;28;20076;-86
2022/04/09 02:16:45;;;;;;;50.95;25.30;;;1.30;99.90;;;;;;5001159;28;20026;-87
2022/04/09 02:19:11;;;;;;;48.63;25.38;;;1.30;99.90;;;;;;5002073;28;20041;-86
2022/04/09 02:21:37;;;;;;;47.92;22.95;;;1.30;99.90;;;;;;5001718;28;20033;-86
2022/04/09 02:24:03;;;;;;;52.72;25.98;;;1.30;99.90;;;;;;5019060;28;20030;-86
2022/04/09 02:26:29;;;;;;;49.63;26.67;;;1.30;99.90;;;;;;5021069;28;20128;-86
2022/04/09 02:28:56;;;;;;;52.72;28.10;;;1.30;99.90;;;;;;5017253;28;20477;-87
2022/04/09 02:31:22;;;;;;;51.28;25.95;;;1.30;99.90;;;;;;5016691;28;20029;-86
2022/04/09 02:33:48;;;;;;;51.35;25.63;;;1.30;99.90;;;;;;5072061;22;20042;-85
2022/04/09 02:36:14;;;;;;;52.88;24.90;;;1.30;99.90;;;;;;5034058;28;20032;-84
2022/04/09 02:38:48;;;;;;;57.30;28.35;;;1.30;99.90;;;;;;5016320;28;20120;-86
2022/04/09 02:41:35;;;;;;;52.03;25.63;;;1.30;99.90;;;;;;5033593;28;20104;-86
2022/04/09 02:44:02;;;;;;;62.25;31.23;;;1.30;99.90;;;;;;5035666;28;20108;-86
2022/04/09 02:46:43;;;;;;;60.05;30.08;;;1.30;99.90;;;;;;5033832;28;20029;-85
2022/04/09 02:49:16;;;;;;;53.47;27.50;;;1.30;99.90;;;;;;5034184;28;20033;-83
2022/04/09 02:51:51;;;;;;;61.03;29.50;;;1.30;99.90;;;;;;5033895;28;20576;-85
2022/04/09 02:57:14;;;;;;;63.35;29.08;;;1.30;99.90;;;;;;5034337;28;20199;-85
2022/04/09 02:59:40;;;;;;;59.03;30.17;;;1.30;99.90;;;;;;5033851;28;20109;-88
2022/04/09 03:02:06;;;;;;;62.58;29.40;;;1.30;99.90;;;;;;5016019;28;20061;-87
2022/04/09 03:04:34;;;;;;;64.63;31.98;;;1.30;99.90;;;;;;5017076;28;20101;-85
2022/04/09 03:06:59;;;;;;;62.58;30.42;;;1.30;99.90;;;;;;5038499;28;20063;-87
2022/04/09 03:09:25;;;;;;;59.58;29.60;;;1.30;99.90;;;;;;5039052;28;20030;-86
2022/04/09 03:11:50;;;;;;;54.72;26.98;;;1.30;99.90;;;;;;5037659;28;20102;-88
2022/04/09 03:14:16;;;;;;;55.05;27.80;;;1.30;99.90;;;;;;5020716;28;20029;-87
2022/04/09 03:16:42;;;;;;;53.67;29.17;;;1.30;99.90;;;;;;5038676;28;20025;-85
2022/04/09 03:19:07;;;;;;;53.97;28.48;;;1.30;99.90;;;;;;5021732;28;20034;-85
2022/04/09 03:21:39;;;;;;;52.17;26.55;;;1.30;99.90;;;;;;5022049;28;20052;-86
2022/04/09 03:24:05;;;;;;;56.70;30.10;;;1.30;99.90;;;;;;5038924;28;20048;-85
2022/04/09 03:26:31;;;;;;;64.50;28.85;;;1.30;99.90;;;;;;5022069;28;20029;-85
2022/04/09 03:28:56;;;;;;;61.85;27.17;;;1.30;99.90;;;;;;5039949;28;20037;-86
2022/04/09 03:31:22;;;;;;;56.38;28.65;;;1.30;99.90;;;;;;5040054;28;20025;-85
2022/04/09 03:33:51;;;;;;;53.97;27.48;;;1.30;99.90;;;;;;5040321;28;20029;-87
2022/04/09 03:36:17;;;;;;;60.85;30.02;;;1.30;99.90;;;;;;5040700;28;20026;-86
2022/04/09 03:38:42;;;;;;;62.22;28.20;;;1.30;99.90;;;;;;5039908;28;20041;-86
2022/04/09 03:41:08;;;;;;;63.30;30.52;;;1.30;99.90;;;;;;5040285;28;20497;-86
2022/04/09 03:43:34;;;;;;;54.67;28.02;;;1.30;99.90;;;;;;5039705;28;20034;-86
2022/04/09 03:45:59;;;;;;;58.75;30.02;;;1.30;99.90;;;;;;5040435;28;20454;-87
2022/04/09 03:48:25;;;;;;;52.00;27.90;;;1.30;99.90;;;;;;5021472;28;20036;-88
2022/04/09 03:50:51;;;;;;;59.40;29.67;;;1.30;99.90;;;;;;5022452;28;20025;-87
2022/04/09 03:53:20;;;;;;;60.83;30.30;;;1.20;99.90;;;;;;5039841;28;20021;-86
2022/04/09 03:55:49;;;;;;;54.75;28.08;;;1.20;99.90;;;;;;5020333;28;20025;-86
2022/04/09 03:58:19;;;;;;;59.65;27.75;;;1.20;99.90;;;;;;5038232;28;20195;-86
2022/04/09 04:00:45;;;;;;;53.87;28.30;;;1.20;99.90;;;;;;5020225;28;20026;-86
2022/04/09 04:03:12;;;;;;;61.10;26.70;;;1.20;99.90;;;;;;5038118;28;20025;-86
2022/04/09 04:05:38;;;;;;;49.45;27.38;;;1.20;99.90;;;;;;5020044;28;20057;-86
2022/04/09 04:08:05;;;;;;;54.10;25.33;;;1.20;99.90;;;;;;5020586;28;20435;-85
2022/04/09 04:10:32;;;;;;;58.60;28.73;;;1.20;99.90;;;;;;5037700;28;20040;-86
2022/04/09 04:12:58;;;;;;;62.50;27.35;;;1.20;99.90;;;;;;5042384;28;20022;-85
2022/04/09 04:15:23;;;;;;;54.80;26.35;;;1.10;99.90;;;;;;5035491;28;20108;-85
2022/04/09 04:17:49;;;;;;;51.47;26.00;;;1.10;99.90;;;;;;5018559;28;20108;-86
2022/04/09 04:20:15;;;;;;;51.63;27.90;;;1.10;99.90;;;;;;5017983;28;20029;-86
2022/04/09 04:22:41;;;;;;;56.13;28.75;;;1.10;99.90;;;;;;5019139;28;20434;-88
2022/04/09 04:25:07;;;;;;;68.03;27.77;;;1.10;99.90;;;;;;5019047;28;20039;-86
2022/04/09 04:27:42;;;;;;;56.95;28.40;;;1.10;99.90;;;;;;5018692;28;20025;-88
2022/04/09 04:30:08;;;;;;;57.92;29.73;;;1.10;99.90;;;;;;5018401;28;20496;-87
2022/04/09 04:32:34;;;;;;;66.20;30.65;;;1.10;99.90;;;;;;5036470;28;20021;-86
2022/04/09 04:35:00;;;;;;;64.90;28.88;;;1.10;99.90;;;;;;5036686;28;20508;-87
2022/04/09 04:37:35;;;;;;;73.47;33.33;;;1.10;99.90;;;;;;5035675;28;20448;-86
2022/04/09 04:40:00;;;;;;;66.40;33.17;;;1.10;99.90;;;;;;5035536;28;20021;-88
2022/04/09 04:42:26;;;;;;;63.35;29.15;;;1.10;99.90;;;;;;5035940;28;20393;-86
2022/04/09 04:44:52;;;;;;;60.35;28.25;;;1.10;99.90;;;;;;5035560;28;20030;-86
2022/04/09 04:47:17;;;;;;;61.45;29.38;;;1.10;99.90;;;;;;5017622;28;20497;-87
2022/04/09 04:49:43;;;;;;;62.42;28.90;;;1.10;99.90;;;;;;5035263;28;20342;-87
2022/04/09 04:52:08;;;;;;;59.63;29.50;;;1.10;99.90;;;;;;5017634;28;20045;-86
2022/04/09 04:54:34;;;;;;;54.00;27.17;;;1.10;99.90;;;;;;5017431;28;20021;-87
2022/04/09 04:57:00;;;;;;;64.95;29.65;;;1.10;99.90;;;;;;5035800;28;20425;-86
2022/04/09 04:59:25;;;;;;;61.35;30.58;;;1.10;99.90;;;;;;5017624;28;20029;-87
2022/04/09 05:01:51;;;;;;;57.17;29.02;;;1.10;99.90;;;;;;5017608;28;20025;-86
2022/04/09 05:04:17;;;;;;;59.13;29.33;;;1.10;99.90;;;;;;5035328;28;20030;-86
2022/04/09 05:06:44;;;;;;;61.88;28.75;;;1.00;99.90;;;;;;5035110;28;20108;-84
2022/04/09 05:09:10;;;;;;;65.70;29.30;;;1.00;99.90;;;;;;5017066;28;20026;-87
2022/04/09 05:11:36;;;;;;;63.67;31.95;;;1.00;99.90;;;;;;5034798;28;20026;-88
2022/04/09 05:14:03;;;;;;;69.80;31.17;;;1.00;99.90;;;;;;5018442;28;20060;-88
2022/04/09 05:16:29;;;;;;;64.45;35.42;;;1.00;99.90;;;;;;5038047;28;20021;-87
2022/04/09 05:18:55;;;;;;;64.03;35.55;;;1.00;99.90;;;;;;5036837;28;20124;-86
2022/04/09 05:21:20;;;;;;;65.38;30.90;;;1.00;99.90;;;;;;5036580;28;20055;-87
2022/04/09 05:23:46;;;;;;;63.00;30.25;;;1.00;99.90;;;;;;5020312;28;20029;-88
2022/04/09 05:26:11;;;;;;;62.63;28.55;;;1.00;99.90;;;;;;5020451;28;20140;-87
2022/04/09 05:28:37;;;;;;;60.33;29.08;;;1.00;99.90;;;;;;5020635;28;20033;-87
2022/04/09 05:31:04;;;;;;;58.95;28.10;;;1.00;99.90;;;;;;5036768;28;20051;-85
2022/04/09 05:33:30;;;;;;;59.58;27.38;;;1.00;99.90;;;;;;5017579;28;20641;-86
2022/04/09 05:35:56;;;;;;;64.13;29.08;;;1.00;99.90;;;;;;5036167;28;20160;-85
2022/04/09 05:38:22;;;;;;;63.00;27.65;;;1.00;99.90;;;;;;5036099;28;20045;-84
2022/04/09 05:40:49;;;;;;;58.95;26.40;;;1.10;99.90;;;;;;5035163;28;20040;-86
2022/04/09 05:43:14;;;;;;;57.03;26.52;;;1.10;99.90;;;;;;5036025;28;20021;-87
2022/04/09 05:45:40;;;;;;;55.13;27.98;;;1.10;99.90;;;;;;5036157;28;20498;-87
2022/04/09 05:48:06;;;;;;;49.63;25.88;;;1.10;99.90;;;;;;5018152;28;20151;-85
2022/04/09 05:50:32;;;;;;;48.78;24.58;;;1.20;99.90;;;;;;5036546;28;20499;-85
2022/04/09 05:52:57;;;;;;;51.53;26.65;;;1.10;99.90;;;;;;5018864;28;20056;-86
2022/04/09 05:55:23;;;;;;;56.58;25.58;;;1.20;99.90;;;;;;5037153;28;20045;-84
2022/04/09 05:57:49;;;;;;;58.80;25.48;;;1.20;99.90;;;;;;5018702;28;20018;-84
2022/04/09 06:00:16;;;;;;;53.05;26.48;;;1.20;99.90;;;;;;5036790;28;20402;-86
2022/04/09 06:02:42;;;;;;;52.08;23.73;;;1.20;99.90;;;;;;5037703;28;20024;-86
2022/04/09 06:05:08;;;;;;;51.38;26.90;;;1.30;99.90;;;;;;5033776;28;20021;-83
2022/04/09 06:07:34;;;;;;;47.67;24.83;;;1.30;99.90;;;;;;5016843;28;20036;-84
2022/04/09 06:10:00;;;;;;;53.00;25.33;;;1.30;99.90;;;;;;5016295;28;20057;-87
2022/04/09 06:12:29;;;;;;;50.70;25.77;;;1.30;99.90;;;;;;5034152;28;20025;-85
2022/04/09 06:14:55;;;;;;;56.83;27.15;;;1.40;99.90;;;;;;5015907;28;20076;-84
2022/04/09 06:17:24;;;;;;;57.40;25.27;;;1.40;99.90;;;;;;5015999;28;20135;-84
2022/04/09 06:19:50;;;;;;;54.38;25.98;;;1.40;99.90;;;;;;5015744;28;20083;-85
2022/04/09 06:22:16;;;;;;;56.35;25.10;;;1.40;99.90;;;;;;5016283;28;20021;-87
2022/04/09 06:24:42;;;;;;;58.72;25.77;;;1.40;99.90;;;;;;5034118;28;20040;-87
2022/04/09 06:27:10;;;;;;;48.50;26.23;;;1.40;99.90;;;;;;5016360;28;20443;-86
2022/04/09 06:29:36;;;;;;;50.90;25.25;;;1.50;99.90;;;;;;5034219;28;20025;-86
2022/04/09 06:32:08;;;;;;;62.58;28.35;;;1.50;99.90;;;;;;5032468;28;20431;-85
2022/04/09 06:34:36;;;;;;;55.42;26.42;;;1.50;99.90;;;;;;5033312;28;20064;-88
2022/04/09 06:37:03;;;;;;;62.25;27.10;;;1.50;99.90;;;;;;5017119;28;20033;-87
2022/04/09 06:39:33;;;;;;;58.47;28.10;;;1.60;99.90;;;;;;5034326;28;20029;-85
2022/04/09 06:42:04;;;;;;;51.85;25.60;;;1.60;99.90;;;;;;5017164;28;20079;-85
2022/04/09 06:44:35;;;;;;;51.92;25.45;;;1.60;99.90;;;;;;5017572;28;20482;-86
2022/04/09 06:47:01;;;;;;;;;;;1.60;99.90;;;;;;5014648;28;20041;-85
2022/04/09 06:49:27;;;;;;;58.70;26.75;;;1.60;99.90;;;;;;5034926;28;19912;-85
2022/04/09 06:51:55;;;;;;;58.13;26.25;;;1.70;99.90;;;;;;5017402;28;20114;-85
2022/04/09 06:54:21;;;;;;;52.03;24.17;;;1.70;99.90;;;;;;5016848;28;20331;-85
2022/04/09 06:56:47;;;;;;;51.35;26.05;;;1.80;99.90;;;;;;5016922;28;20026;-85
2022/04/09 06:59:12;;;;;;;43.67;24.92;;;1.80;99.90;;;;;;5017301;28;20025;-84
2022/04/09 07:01:38;;;;;;;48.75;26.23;;;1.70;99.90;;;;;;5034850;28;20088;-85
2022/04/09 07:04:04;;;;;;;51.97;26.00;;;1.70;99.90;;;;;;5016630;28;20119;-84
2022/04/09 07:06:32;;;;;;;57.38;28.88;;;1.70;99.90;;;;;;5016171;28;20037;-86
2022/04/09 07:08:58;;;;;;;49.00;25.00;;;1.70;99.90;;;;;;5034669;28;20051;-86
2022/04/09 07:11:26;;;;;;;52.72;26.85;;;1.70;99.90;;;;;;5016169;28;20105;-85
2022/04/09 07:13:52;;;;;;;52.63;26.58;;;1.70;99.90;;;;;;5017036;28;20021;-86
2022/04/09 07:16:18;;;;;;;50.25;25.58;;;1.80;99.90;;;;;;5036049;28;20052;-85
2022/04/09 07:18:43;;;;;;;54.03;24.30;;;1.80;99.90;;;;;;5038096;28;20021;-84
2022/04/09 07:21:15;;;;;;;52.20;26.00;;;1.90;99.90;;;;;;5016798;28;20026;-82
2022/04/09 07:23:41;;;;;;;46.92;24.70;;;1.90;99.90;;;;;;5016538;28;20080;-88
2022/04/09 07:26:14;;;;;;;48.85;25.40;;;1.90;99.90;;;;;;5015942;28;20029;-86
2022/04/09 07:28:40;;;;;;;52.53;25.00;;;2.00;99.90;;;;;;5016481;28;20021;-86
2022/04/09 07:31:12;;;;;;;57.85;26.50;;;2.00;99.90;;;;;;5035630;28;20079;-84
2022/04/09 07:33:37;;;;;;;52.17;27.08;;;2.10;99.90;;;;;;5035044;28;20056;-86
2022/04/09 07:36:22;;;;;;;58.78;26.67;;;2.10;99.90;;;;;;5034601;28;20025;-85
2022/04/09 07:38:48;;;;;;;58.10;25.77;;;2.10;99.90;;;;;;5035768;28;20075;-87
2022/04/09 07:41:13;;;;;;;52.50;25.90;;;2.10;99.90;;;;;;5035184;28;20104;-87
2022/04/09 07:43:39;;;;;;;50.38;24.67;;;2.10;99.90;;;;;;5017556;28;20018;-86
2022/04/09 07:46:10;;;;;;;53.58;25.58;;;2.10;99.90;;;;;;5016486;28;20041;-87
2022/04/09 07:48:35;;;;;;;46.58;23.67;;;2.20;99.90;;;;;;5016847;28;20113;-86
2022/04/09 07:51:06;;;;;;;42.35;22.48;;;2.30;99.90;;;;;;5021864;28;20072;-86
2022/04/09 07:53:35;;;;;;;43.63;23.55;;;2.30;99.90;;;;;;5037004;28;20025;-85
2022/04/09 07:56:03;;;;;;;49.83;24.83;;;2.40;99.90;;;;;;5038191;28;20079;-85
2022/04/09 07:58:29;;;;;;;47.75;24.75;;;2.60;99.90;;;;;;5021056;28;20017;-84
2022/04/09 08:01:08;;;;;;;47.30;23.48;;;2.60;99.90;;;;;;5040379;28;20095;-86
2022/04/09 08:03:48;;;;;;;48.42;25.27;;;2.60;99.90;;;;;;5023888;28;20508;-86
2022/04/09 08:06:38;;;;;;;54.40;23.05;;;2.60;99.90;;;;;;5020589;28;20038;-86
2022/04/09 08:09:04;;;;;;;42.58;21.45;;;2.80;99.90;;;;;;5021163;28;20120;-87
2022/04/09 08:11:30;;;;;;;43.05;22.55;;;2.90;99.90;;;;;;5021228;28;20473;-87
2022/04/09 08:13:59;;;;;;;38.13;20.50;;;2.90;99.90;;;;;;5020642;28;20397;-85
2022/04/09 08:16:25;;;;;;;46.65;21.35;;;2.80;99.90;;;;;;5039101;28;20032;-86
2022/04/09 08:18:51;;;;;;;44.88;23.58;;;2.70;99.90;;;;;;5019784;28;20028;-86
2022/04/09 08:21:18;;;;;;;37.78;21.63;;;2.90;99.90;;;;;;5019407;28;20025;-86
2022/04/09 08:23:44;;;;;;;40.45;20.88;;;2.90;99.90;;;;;;5019182;28;20108;-87
2022/04/09 08:26:09;;;;;;;47.60;23.45;;;2.90;99.90;;;;;;5018923;28;20060;-87
2022/04/09 08:28:36;;;;;;;45.47;23.00;;;3.00;99.90;;;;;;5018736;28;20184;-86
2022/04/09 08:31:02;;;;;;;41.88;20.52;;;3.20;99.90;;;;;;5037057;28;20127;-84
2022/04/09 08:33:30;;;;;;;36.20;18.77;;;3.30;99.90;;;;;;5036185;28;20025;-86
2022/04/09 08:35:56;;;;;;;30.45;15.63;;;3.30;99.90;;;;;;5018883;28;20052;-85
2022/04/09 08:38:22;;;;;;;38.63;17.17;;;3.10;99.90;;;;;;5080524;23;20044;-86
2022/04/09 08:40:48;;;;;;;35.47;14.85;;;3.10;99.90;;;;;;5016459;28;20026;-87
2022/04/09 08:43:14;;;;;;;23.70;14.75;;;3.20;99.90;;;;;;5017109;28;20079;-87
2022/04/09 08:45:40;;;;;;;36.40;13.82;;;3.40;99.90;;;;;;5034638;28;20426;-83
2022/04/09 08:48:08;;;;;;;34.05;15.00;;;3.40;99.90;;;;;;5034389;28;20025;-85
2022/04/09 08:50:37;;;;;;;37.38;16.90;;;3.30;99.90;;;;;;5018302;28;20029;-86
2022/04/09 08:53:07;;;;;;;34.00;15.90;;;3.30;99.90;;;;;;5016785;28;20117;-86
2022/04/09 08:55:36;;;;;;;35.83;15.55;;;3.40;99.90;;;;;;5017389;28;20017;-86
2022/04/09 08:58:02;;;;;;;28.38;14.77;;;3.40;99.90;;;;;;5017375;28;20029;-85
2022/04/09 09:00:28;;;;;;;40.38;18.55;;;3.50;99.90;;;;;;5036015;28;20040;-86
2022/04/09 09:02:56;;;;;;;34.10;18.13;;;3.50;99.90;;;;;;5034763;28;20425;-84
2022/04/09 09:05:34;;;;;;;35.70;17.08;;;3.40;99.90;;;;;;5017833;28;20592;-85
2022/04/09 09:08:00;;;;;;;33.83;16.10;;;3.40;99.90;;;;;;5036619;28;20076;-84
2022/04/09 09:10:26;;;;;;;32.35;14.93;;;3.50;99.90;;;;;;5035291;28;20607;-85
2022/04/09 09:13:06;;;;;;;27.77;13.95;;;3.50;99.90;;;;;;5035954;28;20033;-86
2022/04/09 09:15:55;;;;;;;29.73;15.23;;;3.60;99.90;;;;;;5036675;28;20021;-88
2022/04/09 09:18:27;;;;;;;28.55;15.35;;;3.60;99.90;;;;;;5002161;28;20026;-82
2022/04/09 09:20:55;;;;;;;35.47;14.02;;;3.60;99.90;;;;;;5018882;28;20108;-84
2022/04/09 09:23:25;;;;;;;30.73;13.25;;;3.70;99.90;;;;;;5036667;28;20063;-84
2022/04/09 09:25:51;;;;;;;25.85;12.73;;;3.80;99.90;;;;;;5018389;28;20025;-85
2022/04/09 09:28:33;;;;;;;24.70;11.60;;;3.90;99.90;;;;;;5036581;28;20021;-86
2022/04/09 09:31:00;;;;;;;30.10;11.82;;;4.00;99.90;;;;;;5015553;28;20112;-85
2022/04/09 09:33:26;;;;;;;26.77;11.93;;;3.90;99.90;;;;;;5035240;28;20025;-83
2022/04/09 09:35:59;;;;;;;26.15;11.68;;;4.10;99.90;;;;;;5035496;28;20013;-88
2022/04/09 09:38:31;;;;;;;24.25;9.93;;;4.10;99.90;;;;;;5034895;28;20505;-85
2022/04/09 09:40:57;;;;;;;27.90;12.50;;;4.10;99.90;;;;;;5035633;28;20037;-86
2022/04/09 09:43:25;;;;;;;21.83;11.98;;;4.20;99.90;;;;;;5016872;28;20025;-84
2022/04/09 09:45:53;;;;;;;28.23;9.82;;;4.40;99.90;;;;;;5017656;28;20029;-85
2022/04/09 09:48:26;;;;;;;21.77;10.50;;;4.30;99.90;;;;;;5034884;28;20048;-87
2022/04/09 09:50:54;;;;;;;29.23;12.32;;;4.30;99.90;;;;;;5016715;28;20029;-86
2022/04/09 09:53:27;;;;;;;24.17;11.77;;;4.50;99.90;;;;;;5034487;28;20021;-86
2022/04/09 09:55:53;;;;;;;26.23;11.75;;;4.50;99.90;;;;;;5035110;28;20029;-85
2022/04/09 09:58:21;;;;;;;27.08;10.35;;;4.70;99.90;;;;;;5034692;28;20051;-86
2022/04/09 10:00:47;;;;;;;20.05;9.70;;;4.80;99.90;;;;;;5035334;28;20087;-85
2022/04/09 10:03:14;;;;;;;29.25;11.45;;;4.80;99.90;;;;;;5035823;28;20033;-87
2022/04/09 10:05:43;;;;;;;21.50;9.13;;;4.90;99.90;;;;;;5018477;28;20089;-86
2022/04/09 10:08:09;;;;;;;20.92;9.90;;;4.80;99.90;;;;;;5035441;28;20026;-85
2022/04/09 10:10:36;;;;;;;16.48;8.25;;;4.80;99.90;;;;;;5035699;28;20470;-86
2022/04/09 10:13:04;;;;;;;20.55;9.10;;;4.80;99.90;;;;;;5035858;28;20027;-84
2022/04/09 10:15:30;;;;;;;17.02;6.80;;;4.80;99.90;;;;;;5035097;28;20025;-85
2022/04/09 10:17:58;;;;;;;27.95;9.95;;;4.70;99.90;;;;;;5017171;28;20175;-85
2022/04/09 10:20:27;;;;;;;18.77;7.75;;;4.70;99.90;;;;;;5033685;28;20029;-87
2022/04/09 10:22:58;;;;;;;23.35;9.30;;;4.90;99.90;;;;;;5033937;28;20032;-87
2022/04/09 10:25:29;;;;;;;21.13;7.73;;;5.20;99.90;;;;;;5035091;28;20129;-86
2022/04/09 10:28:03;;;;;;;21.05;7.07;;;5.70;99.90;;;;;;5034517;28;20699;-84
2022/04/09 10:30:37;;;;;;;19.33;8.13;;;5.80;99.90;;;;;;5036461;28;20030;-84
2022/04/09 10:33:02;;;;;;;15.45;7.63;;;5.90;99.90;;;;;;5035553;28;20017;-84
2022/04/09 10:35:40;;;;;;;15.80;6.18;;;6.00;99.90;;;;;;5037064;28;20083;-84
2022/04/09 10:38:17;;;;;;;25.05;7.43;;;6.20;99.90;;;;;;5017853;28;20042;-86
2022/04/09 10:40:42;;;;;;;16.98;6.53;;;6.50;99.90;;;;;;5016832;28;20531;-83
2022/04/09 10:43:09;;;;;;;14.80;6.35;;;6.30;99.90;;;;;;5035180;28;20029;-84
2022/04/09 10:46:02;;;;;;;17.10;6.38;;;6.30;99.90;;;;;;5033788;28;20024;-87
2022/04/09 10:48:32;;;;;;;23.02;8.20;;;6.50;99.90;;;;;;5035620;28;20025;-87
2022/04/09 10:50:58;;;;;;;21.63;6.95;;;6.20;99.90;;;;;;5036356;28;20045;-86
2022/04/09 10:53:29;;;;;;;16.52;6.65;;;6.00;99.90;;;;;;5035843;28;20032;-85
2022/04/09 10:56:14;;;;;;;22.98;6.45;;;5.90;99.90;;;;;;5017763;28;20029;-86
2022/04/09 10:59:05;;;;;;;17.90;6.68;;;6.00;99.90;;;;;;5035056;28;20017;-85
2022/04/09 11:01:46;;;;;;;;;;;6.50;99.90;;;;;;5018619;28;20461;-86
2022/04/09 11:04:34;;;;;;;20.83;7.65;;;6.80;99.90;;;;;;5035201;28;19988;-86
2022/04/09 11:07:12;;;;;;;14.10;7.30;;;7.00;99.90;;;;;;5035126;28;20030;-85
2022/04/09 11:09:49;;;;;;;16.80;7.63;;;7.20;99.90;;;;;;5035385;28;20416;-85
2022/04/09 11:12:19;;;;;;;20.55;7.60;;;7.40;99.90;;;;;;5035803;28;20481;-86
2022/04/09 11:14:52;;;;;;;16.25;7.53;;;6.90;99.90;;;;;;5035801;28;20041;-86
2022/04/09 11:17:27;;;;;;;23.55;7.05;;;6.80;99.90;;;;;;5035557;28;20083;-84
2022/04/09 11:19:54;;;;;;;22.38;7.80;;;6.60;99.90;;;;;;5035593;28;20478;-85
2022/04/09 11:22:19;;;;;;;17.13;7.25;;;6.40;99.90;;;;;;5017016;28;20212;-86
2022/04/09 11:24:45;;;;;;;16.20;6.30;;;6.60;99.90;;;;;;5016714;28;20065;-85
2022/04/09 11:27:11;;;;;;;18.45;6.25;;;6.50;99.90;;;;;;5038731;28;20025;-86
2022/04/09 11:29:41;;;;;;;16.27;5.78;;;6.50;99.90;;;;;;5039616;28;20076;-84
2022/04/09 11:32:19;;;;;;;17.58;5.55;;;6.40;99.90;;;;;;5040020;28;20445;-87
2022/04/09 11:34:59;;;;;;;18.17;7.20;;;6.40;99.90;;;;;;5021144;28;20048;-86
2022/04/09 11:37:27;;;;;;;17.20;6.05;;;6.60;99.90;;;;;;5022371;28;20057;-85
2022/04/09 11:39:53;;;;;;;25.02;6.93;;;6.80;99.90;;;;;;5039884;28;20444;-85
2022/04/09 11:42:19;;;;;;;18.45;6.38;;;6.70;99.90;;;;;;5039031;28;20028;-85
2022/04/09 11:44:45;;;;;;;11.73;5.13;;;6.60;99.90;;;;;;5039245;28;20029;-85
2022/04/09 11:47:16;;;;;;;20.05;5.32;;;6.60;99.90;;;;;;5038900;28;20032;-86
2022/04/09 11:49:49;;;;;;;16.25;5.15;;;6.60;99.90;;;;;;5039314;28;20503;-86
2022/04/09 11:52:29;;;;;;;11.77;5.47;;;6.50;99.90;;;;;;5039101;28;20021;-85
2022/04/09 11:54:55;;;;;;;15.15;4.90;;;6.50;99.90;;;;;;5021068;28;20025;-85
2022/04/09 11:57:22;;;;;;;12.20;4.22;;;6.70;96.80;;;;;;5038238;28;20018;-87
2022/04/09 11:59:52;;;;;;;14.75;5.28;;;6.60;97.40;;;;;;5039006;28;20049;-85
2022/04/09 12:02:25;;;;;;;13.57;4.73;;;6.40;97.10;;;;;;5038080;28;20466;-86
2022/04/09 12:04:53;;;;;;;13.55;4.45;;;6.80;95.20;;;;;;5038926;28;20606;-84
2022/04/09 12:07:24;;;;;;;13.27;5.22;;;7.10;92.20;;;;;;5039771;28;20036;-85
2022/04/09 12:09:50;;;;;;;8.77;4.47;;;6.90;91.60;;;;;;5020553;28;20053;-89
2022/04/09 12:12:22;;;;;;;14.52;5.00;;;6.80;92.00;;;;;;5039175;28;20109;-86
2022/04/09 12:14:58;;;;;;;14.05;4.40;;;7.10;92.60;;;;;;5021162;28;20013;-86
2022/04/09 12:17:39;;;;;;;21.63;4.18;;;7.30;91.00;;;;;;5039124;28;20013;-85
2022/04/09 12:22:33;;;;;;;13.82;3.10;;;7.70;86.50;;;;;;5075919;28;20045;-85
2022/04/09 12:24:59;;;;;;;11.00;3.42;;;7.80;84.70;;;;;;5079531;28;20050;-85
2022/04/09 12:27:47;;;;;;;13.18;3.83;;;7.90;84.30;;;;;;5078975;28;20031;-85
2022/04/09 12:30:14;;;;;;;13.70;3.92;;;7.80;85.80;;;;;;5058940;28;20080;-87
2022/04/09 12:32:41;;;;;;;7.75;2.95;;;7.70;84.10;;;;;;5057096;28;20025;-85
2022/04/09 12:35:08;;;;;;;9.38;3.35;;;7.70;84.00;;;;;;5058759;28;20025;-87
2022/04/09 12:37:49;;;;;;;6.63;2.40;;;8.00;80.50;;;;;;5040221;28;20017;-86
2022/04/09 12:40:21;;;;;;;7.93;2.58;;;8.10;79.50;;;;;;5058550;28;20032;-86
2022/04/09 12:42:48;;;;;;;9.32;2.75;;;8.20;79.00;;;;;;5040729;28;20052;-85
2022/04/09 12:45:20;;;;;;;6.20;2.40;;;8.30;78.50;;;;;;5040339;28;20036;-84
2022/04/09 12:48:00;;;;;;;6.00;2.08;;;8.50;78.20;;;;;;5058574;28;20545;-85
2022/04/09 12:50:31;;;;;;;7.65;1.90;;;8.50;75.90;;;;;;5058322;28;20143;-87
2022/04/09 12:53:00;;;;;;;6.50;1.90;;;8.50;69.20;;;;;;5058624;28;20029;-83
2022/04/09 12:55:27;;;;;;;5.88;1.77;;;8.70;71.20;;;;;;5039932;28;20058;-84
2022/04/09 12:57:53;;;;;;;14.07;2.53;;;8.90;68.60;;;;;;5059733;28;20029;-83